sensor_id;sensor_type;location;lat;lon;timestamp;temperature;humidity
32217;DHT22;67098;51.140;4.088;2023-03-25T00:02:07;11.70;93.10
32217;DHT22;67098;51.140;4.088;2023-03-25T00:04:32;11.60;93.50
32217;DHT22;67098;51.140;4.088;2023-03-25T00:07:00;11.60;93.60
32217;DHT22;67098;51.140;4.088;2023-03-25T00:09:26;11.70;93.60
32217;DHT22;67098;51.140;4.088;2023-03-25T00:11:52;11.70;93.60
32217;DHT22;67098;51.140;4.088;2023-03-25T00:14:17;11.70;93.50
32217;DHT22;67098;51.140;4.088;2023-03-25T00:16:44;11.60;93.70
32217;DHT22;67098;51.140;4.088;2023-03-25T00:19:16;11.60;93.70
32217;DHT22;67098;51.140;4.088;2023-03-25T00:21:42;11.60;93.90
32217;DHT22;67098;51.140;4.088;2023-03-25T00:24:10;11.40;94.30
32217;DHT22;67098;51.140;4.088;2023-03-25T00:26:46;11.40;94.50
32217;DHT22;67098;51.140;4.088;2023-03-25T00:29:14;11.40;94.40
32217;DHT22;67098;51.140;4.088;2023-03-25T00:31:41;11.40;94.30
32217;DHT22;67098;51.140;4.088;2023-03-25T00:34:07;11.50;94.20
32217;DHT22;67098;51.140;4.088;2023-03-25T00:36:34;11.50;94.30
32217;DHT22;67098;51.140;4.088;2023-03-25T00:39:06;11.50;94.30
32217;DHT22;67098;51.140;4.088;2023-03-25T00:41:33;11.50;94.30
32217;DHT22;67098;51.140;4.088;2023-03-25T00:44:02;11.40;94.30
32217;DHT22;67098;51.140;4.088;2023-03-25T00:46:30;11.30;94.40
32217;DHT22;67098;51.140;4.088;2023-03-25T00:48:57;11.40;94.30
32217;DHT22;67098;51.140;4.088;2023-03-25T00:51:24;11.50;93.90
32217;DHT22;67098;51.140;4.088;2023-03-25T00:53:55;11.40;94.10
32217;DHT22;67098;51.140;4.088;2023-03-25T00:56:24;11.40;94.30
32217;DHT22;67098;51.140;4.088;2023-03-25T00:58:50;11.40;94.20
32217;DHT22;67098;51.140;4.088;2023-03-25T01:01:19;11.20;94.60
32217;DHT22;67098;51.140;4.088;2023-03-25T01:03:48;11.20;94.50
32217;DHT22;67098;51.140;4.088;2023-03-25T01:06:15;11.20;94.90
32217;DHT22;67098;51.140;4.088;2023-03-25T01:08:42;11.10;94.80
32217;DHT22;67098;51.140;4.088;2023-03-25T01:11:24;11.10;95.00
32217;DHT22;67098;51.140;4.088;2023-03-25T01:13:50;11.00;95.00
32217;DHT22;67098;51.140;4.088;2023-03-25T01:16:16;11.00;95.00
32217;DHT22;67098;51.140;4.088;2023-03-25T01:18:41;11.10;95.10
32217;DHT22;67098;51.140;4.088;2023-03-25T01:21:07;11.10;95.20
32217;DHT22;67098;51.140;4.088;2023-03-25T01:23:33;11.10;94.90
32217;DHT22;67098;51.140;4.088;2023-03-25T01:25:59;11.10;94.90
32217;DHT22;67098;51.140;4.088;2023-03-25T01:28:26;11.10;95.00
32217;DHT22;67098;51.140;4.088;2023-03-25T01:30:59;11.00;95.20
32217;DHT22;67098;51.140;4.088;2023-03-25T01:33:25;11.00;95.60
32217;DHT22;67098;51.140;4.088;2023-03-25T01:35:52;11.00;95.60
32217;DHT22;67098;51.140;4.088;2023-03-25T01:38:18;11.20;95.20
32217;DHT22;67098;51.140;4.088;2023-03-25T01:40:45;11.10;95.40
32217;DHT22;67098;51.140;4.088;2023-03-25T01:43:11;11.00;95.70
32217;DHT22;67098;51.140;4.088;2023-03-25T01:45:38;11.00;95.80
32217;DHT22;67098;51.140;4.088;2023-03-25T01:48:13;11.10;95.70
32217;DHT22;67098;51.140;4.088;2023-03-25T01:50:45;11.10;95.60
32217;DHT22;67098;51.140;4.088;2023-03-25T01:53:12;11.10;95.70
32217;DHT22;67098;51.140;4.088;2023-03-25T01:55:39;11.20;95.40
32217;DHT22;67098;51.140;4.088;2023-03-25T01:58:10;11.20;95.50
32217;DHT22;67098;51.140;4.088;2023-03-25T02:00:39;11.20;95.70
32217;DHT22;67098;51.140;4.088;2023-03-25T02:03:05;10.90;96.10
32217;DHT22;67098;51.140;4.088;2023-03-25T02:05:41;10.90;96.40
32217;DHT22;67098;51.140;4.088;2023-03-25T02:08:10;11.10;96.10
32217;DHT22;67098;51.140;4.088;2023-03-25T02:10:36;11.10;95.90
32217;DHT22;67098;51.140;4.088;2023-03-25T02:13:02;11.10;95.90
32217;DHT22;67098;51.140;4.088;2023-03-25T02:15:56;11.30;95.60
32217;DHT22;67098;51.140;4.088;2023-03-25T02:29:39;11.00;95.60
32217;DHT22;67098;51.140;4.088;2023-03-25T02:35:28;11.10;95.40
32217;DHT22;67098;51.140;4.088;2023-03-25T02:38:09;11.20;95.20
32217;DHT22;67098;51.140;4.088;2023-03-25T02:40:43;11.00;95.50
32217;DHT22;67098;51.140;4.088;2023-03-25T02:43:31;11.10;95.50
32217;DHT22;67098;51.140;4.088;2023-03-25T02:46:00;11.00;96.00
32217;DHT22;67098;51.140;4.088;2023-03-25T02:48:52;10.80;96.20
32217;DHT22;67098;51.140;4.088;2023-03-25T02:51:27;10.80;96.10
32217;DHT22;67098;51.140;4.088;2023-03-25T02:53:57;10.80;96.30
32217;DHT22;67098;51.140;4.088;2023-03-25T02:56:25;10.90;96.30
32217;DHT22;67098;51.140;4.088;2023-03-25T02:58:52;10.90;96.30
32217;DHT22;67098;51.140;4.088;2023-03-25T03:01:21;10.80;96.40
32217;DHT22;67098;51.140;4.088;2023-03-25T03:03:54;10.80;96.70
32217;DHT22;67098;51.140;4.088;2023-03-25T03:06:20;10.90;96.20
32217;DHT22;67098;51.140;4.088;2023-03-25T03:11:40;10.70;96.80
32217;DHT22;67098;51.140;4.088;2023-03-25T03:14:30;10.70;96.90
32217;DHT22;67098;51.140;4.088;2023-03-25T03:22:53;10.80;96.80
32217;DHT22;67098;51.140;4.088;2023-03-25T03:27:54;10.80;96.70
32217;DHT22;67098;51.140;4.088;2023-03-25T03:33:31;10.80;96.70
32217;DHT22;67098;51.140;4.088;2023-03-25T03:36:08;10.80;96.80
32217;DHT22;67098;51.140;4.088;2023-03-25T03:38:43;10.80;97.00
32217;DHT22;67098;51.140;4.088;2023-03-25T03:41:14;10.70;96.80
32217;DHT22;67098;51.140;4.088;2023-03-25T03:43:54;10.60;97.00
32217;DHT22;67098;51.140;4.088;2023-03-25T03:46:28;10.70;96.80
32217;DHT22;67098;51.140;4.088;2023-03-25T03:48:56;10.70;96.80
32217;DHT22;67098;51.140;4.088;2023-03-25T03:51:27;10.70;96.80
32217;DHT22;67098;51.140;4.088;2023-03-25T03:56:34;10.80;96.50
32217;DHT22;67098;51.140;4.088;2023-03-25T03:59:07;10.70;96.60
32217;DHT22;67098;51.140;4.088;2023-03-25T04:01:40;10.70;96.50
32217;DHT22;67098;51.140;4.088;2023-03-25T04:04:17;10.60;96.60
32217;DHT22;67098;51.140;4.088;2023-03-25T04:06:46;10.60;96.60
32217;DHT22;67098;51.140;4.088;2023-03-25T04:12:28;10.60;96.50
32217;DHT22;67098;51.140;4.088;2023-03-25T04:14:58;10.70;96.30
32217;DHT22;67098;51.140;4.088;2023-03-25T04:17:24;10.60;96.70
32217;DHT22;67098;51.140;4.088;2023-03-25T04:19:50;10.70;96.50
32217;DHT22;67098;51.140;4.088;2023-03-25T04:22:18;10.60;96.60
32217;DHT22;67098;51.140;4.088;2023-03-25T04:24:45;10.70;96.30
32217;DHT22;67098;51.140;4.088;2023-03-25T04:27:17;10.60;96.30
32217;DHT22;67098;51.140;4.088;2023-03-25T04:29:44;10.70;96.20
32217;DHT22;67098;51.140;4.088;2023-03-25T04:32:12;10.60;96.20
32217;DHT22;67098;51.140;4.088;2023-03-25T04:34:38;10.60;96.50
32217;DHT22;67098;51.140;4.088;2023-03-25T04:37:04;10.60;96.30
32217;DHT22;67098;51.140;4.088;2023-03-25T04:39:30;10.60;96.00
32217;DHT22;67098;51.140;4.088;2023-03-25T04:41:57;10.60;95.80
32217;DHT22;67098;51.140;4.088;2023-03-25T04:44:28;10.70;95.50
32217;DHT22;67098;51.140;4.088;2023-03-25T04:46:54;10.80;95.40
32217;DHT22;67098;51.140;4.088;2023-03-25T04:49:22;10.60;95.30
32217;DHT22;67098;51.140;4.088;2023-03-25T04:51:49;10.50;95.50
32217;DHT22;67098;51.140;4.088;2023-03-25T04:54:19;10.60;95.30
32217;DHT22;67098;51.140;4.088;2023-03-25T04:56:49;10.40;95.70
32217;DHT22;67098;51.140;4.088;2023-03-25T04:59:16;10.40;95.60
32217;DHT22;67098;51.140;4.088;2023-03-25T05:01:43;10.40;95.40
32217;DHT22;67098;51.140;4.088;2023-03-25T05:04:11;10.40;95.10
32217;DHT22;67098;51.140;4.088;2023-03-25T05:06:43;10.40;95.20
32217;DHT22;67098;51.140;4.088;2023-03-25T05:09:10;10.30;95.40
32217;DHT22;67098;51.140;4.088;2023-03-25T05:11:37;10.40;95.10
32217;DHT22;67098;51.140;4.088;2023-03-25T05:14:06;10.30;95.10
32217;DHT22;67098;51.140;4.088;2023-03-25T05:16:32;10.40;95.20
32217;DHT22;67098;51.140;4.088;2023-03-25T05:18:58;10.30;95.40
32217;DHT22;67098;51.140;4.088;2023-03-25T05:21:23;10.40;95.10
32217;DHT22;67098;51.140;4.088;2023-03-25T05:23:49;10.50;94.60
32217;DHT22;67098;51.140;4.088;2023-03-25T05:26:16;10.50;94.70
32217;DHT22;67098;51.140;4.088;2023-03-25T05:28:41;10.30;94.90
32217;DHT22;67098;51.140;4.088;2023-03-25T05:31:07;10.40;94.70
32217;DHT22;67098;51.140;4.088;2023-03-25T05:33:35;10.20;95.20
32217;DHT22;67098;51.140;4.088;2023-03-25T05:36:03;10.10;95.40
32217;DHT22;67098;51.140;4.088;2023-03-25T05:38:29;10.20;95.20
32217;DHT22;67098;51.140;4.088;2023-03-25T05:40:54;10.30;95.00
32217;DHT22;67098;51.140;4.088;2023-03-25T05:43:21;10.20;95.20
32217;DHT22;67098;51.140;4.088;2023-03-25T05:45:48;10.30;95.10
32217;DHT22;67098;51.140;4.088;2023-03-25T05:48:14;10.20;95.10
32217;DHT22;67098;51.140;4.088;2023-03-25T05:50:40;10.30;95.20
32217;DHT22;67098;51.140;4.088;2023-03-25T05:53:11;10.40;94.70
32217;DHT22;67098;51.140;4.088;2023-03-25T05:55:37;10.30;94.90
32217;DHT22;67098;51.140;4.088;2023-03-25T05:58:02;10.40;94.90
32217;DHT22;67098;51.140;4.088;2023-03-25T06:00:28;10.40;94.60
32217;DHT22;67098;51.140;4.088;2023-03-25T06:02:55;10.40;94.80
32217;DHT22;67098;51.140;4.088;2023-03-25T06:05:24;10.50;94.70
32217;DHT22;67098;51.140;4.088;2023-03-25T06:07:51;10.40;94.90
32217;DHT22;67098;51.140;4.088;2023-03-25T06:10:21;10.40;94.90
32217;DHT22;67098;51.140;4.088;2023-03-25T06:12:47;10.40;95.10
32217;DHT22;67098;51.140;4.088;2023-03-25T06:15:15;10.50;94.90
32217;DHT22;67098;51.140;4.088;2023-03-25T06:17:42;10.50;94.80
32217;DHT22;67098;51.140;4.088;2023-03-25T06:20:12;10.50;94.80
32217;DHT22;67098;51.140;4.088;2023-03-25T06:22:43;10.60;94.70
32217;DHT22;67098;51.140;4.088;2023-03-25T06:25:15;10.60;94.70
32217;DHT22;67098;51.140;4.088;2023-03-25T06:27:49;10.70;94.60
32217;DHT22;67098;51.140;4.088;2023-03-25T06:30:23;10.70;94.50
32217;DHT22;67098;51.140;4.088;2023-03-25T06:32:49;10.60;94.90
32217;DHT22;67098;51.140;4.088;2023-03-25T06:35:17;10.80;94.70
32217;DHT22;67098;51.140;4.088;2023-03-25T06:37:45;10.90;94.30
32217;DHT22;67098;51.140;4.088;2023-03-25T06:40:13;11.10;94.20
32217;DHT22;67098;51.140;4.088;2023-03-25T06:42:38;11.10;94.20
32217;DHT22;67098;51.140;4.088;2023-03-25T06:45:06;11.10;94.10
32217;DHT22;67098;51.140;4.088;2023-03-25T06:47:32;11.20;94.10
32217;DHT22;67098;51.140;4.088;2023-03-25T06:49:58;11.30;93.90
32217;DHT22;67098;51.140;4.088;2023-03-25T06:52:24;11.30;93.90
32217;DHT22;67098;51.140;4.088;2023-03-25T06:54:49;11.20;94.10
32217;DHT22;67098;51.140;4.088;2023-03-25T06:57:15;11.30;94.10
32217;DHT22;67098;51.140;4.088;2023-03-25T06:59:41;11.30;93.70
32217;DHT22;67098;51.140;4.088;2023-03-25T07:02:08;11.40;93.90
32217;DHT22;67098;51.140;4.088;2023-03-25T07:04:35;11.20;94.00
32217;DHT22;67098;51.140;4.088;2023-03-25T07:07:00;11.20;94.00
32217;DHT22;67098;51.140;4.088;2023-03-25T07:09:26;11.30;94.00
32217;DHT22;67098;51.140;4.088;2023-03-25T07:11:52;11.40;93.70
32217;DHT22;67098;51.140;4.088;2023-03-25T07:14:17;11.60;93.70
32217;DHT22;67098;51.140;4.088;2023-03-25T07:16:43;11.50;93.40
32217;DHT22;67098;51.140;4.088;2023-03-25T07:19:08;11.30;94.00
32217;DHT22;67098;51.140;4.088;2023-03-25T07:21:34;11.40;93.80
32217;DHT22;67098;51.140;4.088;2023-03-25T07:24:00;11.40;93.70
32217;DHT22;67098;51.140;4.088;2023-03-25T07:26:25;11.50;93.60
32217;DHT22;67098;51.140;4.088;2023-03-25T07:28:51;11.50;93.70
32217;DHT22;67098;51.140;4.088;2023-03-25T07:31:17;11.50;93.70
32217;DHT22;67098;51.140;4.088;2023-03-25T07:33:43;11.40;93.70
32217;DHT22;67098;51.140;4.088;2023-03-25T07:36:11;11.40;93.90
32217;DHT22;67098;51.140;4.088;2023-03-25T07:38:37;11.30;94.40
32217;DHT22;67098;51.140;4.088;2023-03-25T07:41:10;11.50;94.10
32217;DHT22;67098;51.140;4.088;2023-03-25T07:43:37;11.50;94.20
32217;DHT22;67098;51.140;4.088;2023-03-25T07:46:03;11.40;94.80
32217;DHT22;67098;51.140;4.088;2023-03-25T07:48:29;11.30;94.70
32217;DHT22;67098;51.140;4.088;2023-03-25T07:50:55;11.40;94.70
32217;DHT22;67098;51.140;4.088;2023-03-25T07:53:20;11.60;94.30
32217;DHT22;67098;51.140;4.088;2023-03-25T07:55:46;11.70;93.90
32217;DHT22;67098;51.140;4.088;2023-03-25T07:58:15;11.60;94.00
32217;DHT22;67098;51.140;4.088;2023-03-25T08:00:41;11.70;93.80
32217;DHT22;67098;51.140;4.088;2023-03-25T08:03:09;11.70;94.00
32217;DHT22;67098;51.140;4.088;2023-03-25T08:05:35;11.70;94.00
32217;DHT22;67098;51.140;4.088;2023-03-25T08:08:04;11.90;93.90
32217;DHT22;67098;51.140;4.088;2023-03-25T08:10:30;11.90;93.90
32217;DHT22;67098;51.140;4.088;2023-03-25T08:12:56;11.80;94.20
32217;DHT22;67098;51.140;4.088;2023-03-25T08:15:22;11.90;94.60
32217;DHT22;67098;51.140;4.088;2023-03-25T08:17:49;11.80;95.00
32217;DHT22;67098;51.140;4.088;2023-03-25T08:20:17;11.70;95.40
32217;DHT22;67098;51.140;4.088;2023-03-25T08:22:46;11.70;95.50
32217;DHT22;67098;51.140;4.088;2023-03-25T08:25:11;11.70;95.70
32217;DHT22;67098;51.140;4.088;2023-03-25T08:27:37;11.80;96.00
32217;DHT22;67098;51.140;4.088;2023-03-25T08:30:03;11.90;95.60
32217;DHT22;67098;51.140;4.088;2023-03-25T08:32:30;11.90;95.60
32217;DHT22;67098;51.140;4.088;2023-03-25T08:34:55;11.90;95.30
32217;DHT22;67098;51.140;4.088;2023-03-25T08:37:22;11.80;95.40
32217;DHT22;67098;51.140;4.088;2023-03-25T08:39:50;11.60;95.80
32217;DHT22;67098;51.140;4.088;2023-03-25T08:42:16;11.70;95.80
32217;DHT22;67098;51.140;4.088;2023-03-25T08:44:42;11.80;95.70
32217;DHT22;67098;51.140;4.088;2023-03-25T08:47:08;11.90;95.60
32217;DHT22;67098;51.140;4.088;2023-03-25T08:49:34;12.00;95.30
32217;DHT22;67098;51.140;4.088;2023-03-25T08:51:59;11.90;95.00
32217;DHT22;67098;51.140;4.088;2023-03-25T08:54:27;12.00;95.10
32217;DHT22;67098;51.140;4.088;2023-03-25T08:56:53;12.30;95.00
32217;DHT22;67098;51.140;4.088;2023-03-25T08:59:19;12.50;94.20
32217;DHT22;67098;51.140;4.088;2023-03-25T09:01:45;12.60;93.90
32217;DHT22;67098;51.140;4.088;2023-03-25T09:04:11;12.50;93.90
32217;DHT22;67098;51.140;4.088;2023-03-25T09:06:37;12.30;93.70
32217;DHT22;67098;51.140;4.088;2023-03-25T09:09:04;12.00;94.30
32217;DHT22;67098;51.140;4.088;2023-03-25T09:11:31;12.10;94.50
32217;DHT22;67098;51.140;4.088;2023-03-25T09:13:57;12.20;94.30
32217;DHT22;67098;51.140;4.088;2023-03-25T09:16:23;12.40;93.90
32217;DHT22;67098;51.140;4.088;2023-03-25T09:18:49;12.60;93.60
32217;DHT22;67098;51.140;4.088;2023-03-25T09:21:14;13.00;93.40
32217;DHT22;67098;51.140;4.088;2023-03-25T09:23:40;13.20;92.50
32217;DHT22;67098;51.140;4.088;2023-03-25T09:26:05;13.30;92.50
32217;DHT22;67098;51.140;4.088;2023-03-25T09:28:31;13.30;92.50
32217;DHT22;67098;51.140;4.088;2023-03-25T09:30:57;13.60;92.60
32217;DHT22;67098;51.140;4.088;2023-03-25T09:33:23;14.00;91.90
32217;DHT22;67098;51.140;4.088;2023-03-25T09:35:49;14.50;91.00
32217;DHT22;67098;51.140;4.088;2023-03-25T09:38:14;14.70;90.30
32217;DHT22;67098;51.140;4.088;2023-03-25T09:40:42;14.80;90.00
32217;DHT22;67098;51.140;4.088;2023-03-25T09:43:24;15.20;89.30
32217;DHT22;67098;51.140;4.088;2023-03-25T09:45:52;15.60;87.40
32217;DHT22;67098;51.140;4.088;2023-03-25T09:50:51;15.40;85.10
32217;DHT22;67098;51.140;4.088;2023-03-25T09:55:55;15.10;85.50
32217;DHT22;67098;51.140;4.088;2023-03-25T10:00:54;15.40;84.40
32217;DHT22;67098;51.140;4.088;2023-03-25T10:03:41;15.30;85.60
32217;DHT22;67098;51.140;4.088;2023-03-25T10:06:12;15.10;84.50
32217;DHT22;67098;51.140;4.088;2023-03-25T10:08:54;14.70;86.70
32217;DHT22;67098;51.140;4.088;2023-03-25T10:20:35;13.40;91.20
32217;DHT22;67098;51.140;4.088;2023-03-25T10:25:32;12.70;91.30
32217;DHT22;67098;51.140;4.088;2023-03-25T10:28:00;12.70;91.20
32217;DHT22;67098;51.140;4.088;2023-03-25T10:30:37;12.70;92.10
32217;DHT22;67098;51.140;4.088;2023-03-25T10:33:15;13.40;92.00
32217;DHT22;67098;51.140;4.088;2023-03-25T10:35:45;13.70;91.40
32217;DHT22;67098;51.140;4.088;2023-03-25T10:38:20;13.70;91.10
32217;DHT22;67098;51.140;4.088;2023-03-25T10:40:50;13.60;91.60
32217;DHT22;67098;51.140;4.088;2023-03-25T10:43:38;13.40;92.10
32217;DHT22;67098;51.140;4.088;2023-03-25T10:46:29;13.20;93.20
32217;DHT22;67098;51.140;4.088;2023-03-25T10:48:55;12.70;93.80
32217;DHT22;67098;51.140;4.088;2023-03-25T10:51:26;12.40;93.00
32217;DHT22;67098;51.140;4.088;2023-03-25T10:53:52;12.30;93.40
32217;DHT22;67098;51.140;4.088;2023-03-25T10:56:36;13.10;93.10
32217;DHT22;67098;51.140;4.088;2023-03-25T10:59:13;13.90;92.70
32217;DHT22;67098;51.140;4.088;2023-03-25T11:01:41;15.00;92.30
32217;DHT22;67098;51.140;4.088;2023-03-25T11:04:11;15.80;91.00
32217;DHT22;67098;51.140;4.088;2023-03-25T11:06:39;15.80;90.00
32217;DHT22;67098;51.140;4.088;2023-03-25T11:11:48;15.10;90.80
32217;DHT22;67098;51.140;4.088;2023-03-25T11:14:14;14.70;90.90
32217;DHT22;67098;51.140;4.088;2023-03-25T11:16:46;14.30;91.20
32217;DHT22;67098;51.140;4.088;2023-03-25T11:19:39;14.30;91.90
32217;DHT22;67098;51.140;4.088;2023-03-25T11:22:32;14.50;91.60
32217;DHT22;67098;51.140;4.088;2023-03-25T11:24:59;14.60;91.30
32217;DHT22;67098;51.140;4.088;2023-03-25T11:27:27;14.50;91.30
32217;DHT22;67098;51.140;4.088;2023-03-25T11:30:03;14.10;91.00
32217;DHT22;67098;51.140;4.088;2023-03-25T11:32:37;13.80;92.00
32217;DHT22;67098;51.140;4.088;2023-03-25T11:37:44;13.30;92.40
32217;DHT22;67098;51.140;4.088;2023-03-25T11:40:16;13.20;92.80
32217;DHT22;67098;51.140;4.088;2023-03-25T11:42:51;13.10;92.50
32217;DHT22;67098;51.140;4.088;2023-03-25T11:45:36;12.90;92.80
32217;DHT22;67098;51.140;4.088;2023-03-25T11:48:13;13.90;92.10
32217;DHT22;67098;51.140;4.088;2023-03-25T11:50:46;14.70;91.40
32217;DHT22;67098;51.140;4.088;2023-03-25T11:53:16;14.90;90.40
32217;DHT22;67098;51.140;4.088;2023-03-25T11:55:48;14.50;90.40
32217;DHT22;67098;51.140;4.088;2023-03-25T11:58:17;14.30;90.70
32217;DHT22;67098;51.140;4.088;2023-03-25T12:00:48;14.00;91.00
32217;DHT22;67098;51.140;4.088;2023-03-25T12:03:18;14.10;90.70
32217;DHT22;67098;51.140;4.088;2023-03-25T12:06:12;14.50;90.00
32217;DHT22;67098;51.140;4.088;2023-03-25T12:08:52;14.70;90.10
32217;DHT22;67098;51.140;4.088;2023-03-25T12:19:23;14.80;89.50
32217;DHT22;67098;51.140;4.088;2023-03-25T12:30:19;15.00;90.30
32217;DHT22;67098;51.140;4.088;2023-03-25T12:35:29;15.40;88.30
32217;DHT22;67098;51.140;4.088;2023-03-25T12:41:19;15.50;86.70
32217;DHT22;67098;51.140;4.088;2023-03-25T13:07:14;15.10;87.50
32217;DHT22;67098;51.140;4.088;2023-03-25T13:10:06;15.00;88.70
32217;DHT22;67098;51.140;4.088;2023-03-25T13:15:23;15.10;87.50
32217;DHT22;67098;51.140;4.088;2023-03-25T13:18:00;15.20;87.10
32217;DHT22;67098;51.140;4.088;2023-03-25T13:20:30;15.10;85.30
32217;DHT22;67098;51.140;4.088;2023-03-25T13:23:00;15.10;85.30
32217;DHT22;67098;51.140;4.088;2023-03-25T13:25:47;14.80;86.30
32217;DHT22;67098;51.140;4.088;2023-03-25T13:28:16;14.60;85.60
32217;DHT22;67098;51.140;4.088;2023-03-25T13:30:47;15.10;86.20
32217;DHT22;67098;51.140;4.088;2023-03-25T13:33:19;15.60;83.70
32217;DHT22;67098;51.140;4.088;2023-03-25T13:36:07;16.20;83.10
32217;DHT22;67098;51.140;4.088;2023-03-25T13:38:39;16.80;80.90
32217;DHT22;67098;51.140;4.088;2023-03-25T13:44:14;16.70;80.80
32217;DHT22;67098;51.140;4.088;2023-03-25T13:46:56;16.30;81.00
32217;DHT22;67098;51.140;4.088;2023-03-25T13:49:29;16.10;82.20
32217;DHT22;67098;51.140;4.088;2023-03-25T13:51:57;16.40;81.80
32217;DHT22;67098;51.140;4.088;2023-03-25T13:54:41;16.50;81.30
32217;DHT22;67098;51.140;4.088;2023-03-25T14:10:37;17.40;77.30
32217;DHT22;67098;51.140;4.088;2023-03-25T14:13:09;17.40;75.70
32217;DHT22;67098;51.140;4.088;2023-03-25T14:15:38;17.10;76.00
32217;DHT22;67098;51.140;4.088;2023-03-25T14:18:15;16.90;76.10
32217;DHT22;67098;51.140;4.088;2023-03-25T14:20:41;17.00;77.00
32217;DHT22;67098;51.140;4.088;2023-03-25T14:23:12;17.40;76.10
32217;DHT22;67098;51.140;4.088;2023-03-25T14:25:43;17.50;76.70
32217;DHT22;67098;51.140;4.088;2023-03-25T14:28:35;17.30;77.10
32217;DHT22;67098;51.140;4.088;2023-03-25T14:39:36;18.50;75.20
32217;DHT22;67098;51.140;4.088;2023-03-25T14:44:34;17.70;76.50
32217;DHT22;67098;51.140;4.088;2023-03-25T14:49:52;16.50;78.20
32217;DHT22;67098;51.140;4.088;2023-03-25T14:53:15;16.20;79.40
32217;DHT22;67098;51.140;4.088;2023-03-25T14:55:28;16.20;80.40
32217;DHT22;67098;51.140;4.088;2023-03-25T14:58:26;16.90;79.30
32217;DHT22;67098;51.140;4.088;2023-03-25T15:00:58;17.70;76.60
32217;DHT22;67098;51.140;4.088;2023-03-25T15:03:38;18.20;74.80
32217;DHT22;67098;51.140;4.088;2023-03-25T15:06:07;18.40;73.80
32217;DHT22;67098;51.140;4.088;2023-03-25T15:08:36;18.50;73.30
32217;DHT22;67098;51.140;4.088;2023-03-25T15:13:53;17.80;73.60
32217;DHT22;67098;51.140;4.088;2023-03-25T15:19:11;16.70;77.20
32217;DHT22;67098;51.140;4.088;2023-03-25T15:24:28;15.70;80.80
32217;DHT22;67098;51.140;4.088;2023-03-25T15:26:56;15.50;81.80
32217;DHT22;67098;51.140;4.088;2023-03-25T15:29:32;15.60;81.20
32217;DHT22;67098;51.140;4.088;2023-03-25T15:37:31;15.10;83.60
32217;DHT22;67098;51.140;4.088;2023-03-25T15:52:06;15.00;84.00
32217;DHT22;67098;51.140;4.088;2023-03-25T15:54:58;14.90;82.80
32217;DHT22;67098;51.140;4.088;2023-03-25T15:57:46;14.90;83.50
32217;DHT22;67098;51.140;4.088;2023-03-25T16:00:23;14.80;83.60
32217;DHT22;67098;51.140;4.088;2023-03-25T16:05:33;14.70;83.60
32217;DHT22;67098;51.140;4.088;2023-03-25T16:08:27;14.80;83.20
32217;DHT22;67098;51.140;4.088;2023-03-25T16:10:50;14.80;83.70
32217;DHT22;67098;51.140;4.088;2023-03-25T16:13:16;14.80;84.10
32217;DHT22;67098;51.140;4.088;2023-03-25T16:15:49;14.80;83.90
32217;DHT22;67098;51.140;4.088;2023-03-25T16:18:17;14.80;83.40
32217;DHT22;67098;51.140;4.088;2023-03-25T16:20:45;14.90;83.20
32217;DHT22;67098;51.140;4.088;2023-03-25T16:23:21;14.80;83.30
32217;DHT22;67098;51.140;4.088;2023-03-25T16:25:49;14.70;83.40
32217;DHT22;67098;51.140;4.088;2023-03-25T16:28:26;14.80;83.40
32217;DHT22;67098;51.140;4.088;2023-03-25T16:30:53;14.80;83.20
32217;DHT22;67098;51.140;4.088;2023-03-25T16:33:25;14.80;83.70
32217;DHT22;67098;51.140;4.088;2023-03-25T16:35:57;14.80;83.50
32217;DHT22;67098;51.140;4.088;2023-03-25T16:38:23;14.70;83.90
32217;DHT22;67098;51.140;4.088;2023-03-25T16:40:50;14.70;83.20
32217;DHT22;67098;51.140;4.088;2023-03-25T16:43:24;14.60;83.60
32217;DHT22;67098;51.140;4.088;2023-03-25T16:45:54;14.50;84.60
32217;DHT22;67098;51.140;4.088;2023-03-25T16:48:25;14.50;84.40
32217;DHT22;67098;51.140;4.088;2023-03-25T16:50:57;14.40;84.60
32217;DHT22;67098;51.140;4.088;2023-03-25T16:53:24;14.50;84.70
32217;DHT22;67098;51.140;4.088;2023-03-25T16:59:02;14.20;84.40
32217;DHT22;67098;51.140;4.088;2023-03-25T17:01:41;14.00;85.00
32217;DHT22;67098;51.140;4.088;2023-03-25T17:04:41;13.90;85.80
32217;DHT22;67098;51.140;4.088;2023-03-25T17:07:11;13.90;86.00
32217;DHT22;67098;51.140;4.088;2023-03-25T17:09:38;13.80;86.20
32217;DHT22;67098;51.140;4.088;2023-03-25T17:12:10;13.90;86.20
32217;DHT22;67098;51.140;4.088;2023-03-25T17:14:43;13.80;86.50
32217;DHT22;67098;51.140;4.088;2023-03-25T17:17:47;13.60;87.00
32217;DHT22;67098;51.140;4.088;2023-03-25T17:20:29;13.60;86.80
32217;DHT22;67098;51.140;4.088;2023-03-25T17:26:10;13.60;87.50
32217;DHT22;67098;51.140;4.088;2023-03-25T17:34:18;13.40;88.60
32217;DHT22;67098;51.140;4.088;2023-03-25T17:36:46;13.30;89.30
32217;DHT22;67098;51.140;4.088;2023-03-25T17:39:23;13.40;89.30
32217;DHT22;67098;51.140;4.088;2023-03-25T17:42:03;13.40;89.00
32217;DHT22;67098;51.140;4.088;2023-03-25T17:44:35;13.50;89.10
32217;DHT22;67098;51.140;4.088;2023-03-25T17:47:02;13.50;88.90
32217;DHT22;67098;51.140;4.088;2023-03-25T17:49:28;13.50;89.10
32217;DHT22;67098;51.140;4.088;2023-03-25T17:51:53;13.40;89.40
32217;DHT22;67098;51.140;4.088;2023-03-25T17:54:19;13.30;89.80
32217;DHT22;67098;51.140;4.088;2023-03-25T17:56:45;13.40;89.70
32217;DHT22;67098;51.140;4.088;2023-03-25T17:59:18;13.10;90.20
32217;DHT22;67098;51.140;4.088;2023-03-25T18:01:45;13.20;90.10
32217;DHT22;67098;51.140;4.088;2023-03-25T18:04:12;13.30;90.10
32217;DHT22;67098;51.140;4.088;2023-03-25T18:06:38;13.30;90.20
32217;DHT22;67098;51.140;4.088;2023-03-25T18:09:15;13.30;90.20
32217;DHT22;67098;51.140;4.088;2023-03-25T18:11:42;13.40;90.20
32217;DHT22;67098;51.140;4.088;2023-03-25T18:14:07;13.30;90.10
32217;DHT22;67098;51.140;4.088;2023-03-25T18:16:33;13.40;90.20
32217;DHT22;67098;51.140;4.088;2023-03-25T18:18:58;13.20;90.50
32217;DHT22;67098;51.140;4.088;2023-03-25T18:21:24;13.20;90.50
32217;DHT22;67098;51.140;4.088;2023-03-25T18:23:50;13.40;90.10
32217;DHT22;67098;51.140;4.088;2023-03-25T18:26:17;13.30;90.20
32217;DHT22;67098;51.140;4.088;2023-03-25T18:28:47;13.30;90.30
32217;DHT22;67098;51.140;4.088;2023-03-25T18:31:14;13.30;90.20
32217;DHT22;67098;51.140;4.088;2023-03-25T18:33:45;13.20;90.50
32217;DHT22;67098;51.140;4.088;2023-03-25T18:36:11;13.10;90.60
32217;DHT22;67098;51.140;4.088;2023-03-25T18:38:37;13.20;90.40
32217;DHT22;67098;51.140;4.088;2023-03-25T18:41:03;13.10;90.70
32217;DHT22;67098;51.140;4.088;2023-03-25T18:43:28;13.10;90.80
32217;DHT22;67098;51.140;4.088;2023-03-25T18:45:54;13.00;91.00
32217;DHT22;67098;51.140;4.088;2023-03-25T18:48:21;12.90;91.00